createdAt,value
2018-12-01T00:01:59.719Z,100.00
2018-12-01T00:04:29.170Z,100.00
2018-12-01T00:07:04.306Z,100.00
2018-12-01T00:09:33.906Z,100.00
2018-12-01T00:12:03.595Z,100.00
2018-12-01T00:14:33.018Z,100.00
2018-12-01T00:17:03.022Z,100.00
2018-12-01T00:19:33.029Z,100.00
2018-12-01T00:22:02.560Z,100.00
2018-12-01T00:24:32.224Z,100.00
2018-12-01T00:27:01.840Z,100.00
2018-12-01T00:29:31.259Z,100.00
2018-12-01T00:32:00.764Z,100.00
2018-12-01T00:34:31.227Z,100.00
2018-12-01T00:37:00.515Z,100.00
2018-12-01T00:39:30.839Z,100.00
2018-12-01T00:42:00.194Z,100.00
2018-12-01T00:44:29.681Z,100.00
2018-12-01T00:46:59.342Z,100.00
2018-12-01T00:49:28.716Z,100.00
2018-12-01T00:51:58.088Z,100.00
2018-12-01T00:54:28.096Z,100.00
2018-12-01T00:56:57.405Z,100.00
2018-12-01T00:59:27.592Z,100.00
2018-12-01T01:01:57.099Z,100.00
2018-12-01T01:04:26.618Z,100.00
2018-12-01T01:06:56.154Z,100.00
2018-12-01T01:09:25.636Z,100.00
2018-12-01T01:11:55.135Z,100.00
2018-12-01T01:14:24.459Z,100.00
2018-12-01T01:16:54.075Z,100.00
2018-12-01T01:19:24.430Z,100.00
2018-12-01T01:21:53.960Z,100.00
2018-12-01T01:24:23.612Z,100.00
2018-12-01T01:26:53.154Z,100.00
2018-12-01T01:29:22.970Z,100.00
2018-12-01T01:31:53.214Z,100.00
2018-12-01T01:34:22.534Z,100.00
2018-12-01T01:36:51.757Z,100.00
2018-12-01T01:39:21.470Z,100.00
2018-12-01T01:41:51.010Z,100.00
2018-12-01T01:44:21.165Z,100.00
2018-12-01T01:46:50.809Z,100.00
2018-12-01T01:49:21.593Z,100.00
2018-12-01T01:51:50.911Z,100.00
2018-12-01T01:54:20.229Z,100.00
2018-12-01T01:56:50.311Z,100.00
2018-12-01T01:59:19.624Z,100.00
2018-12-01T02:01:48.896Z,100.00
2018-12-01T02:04:18.525Z,100.00
2018-12-01T02:06:47.752Z,100.00
2018-12-01T02:09:17.395Z,100.00
2018-12-01T02:11:46.781Z,100.00
2018-12-01T02:14:16.500Z,100.00
2018-12-01T02:16:46.082Z,100.00
2018-12-01T02:19:15.548Z,100.00
2018-12-01T02:21:45.716Z,100.00
2018-12-01T02:24:15.667Z,100.00
2018-12-01T02:26:44.972Z,100.00
2018-12-01T02:29:14.292Z,100.00
2018-12-01T02:31:43.842Z,100.00
2018-12-01T02:34:13.241Z,100.00
2018-12-01T02:36:42.685Z,100.00
2018-12-01T02:39:11.967Z,100.00
2018-12-01T02:41:41.265Z,100.00
2018-12-01T02:44:21.751Z,100.00
2018-12-01T02:47:05.830Z,100.00
2018-12-01T02:49:36.146Z,100.00
2018-12-01T02:52:06.678Z,100.00
2018-12-01T02:54:36.283Z,100.00
2018-12-01T02:57:05.625Z,100.00
2018-12-01T02:59:36.526Z,100.00
2018-12-01T03:02:07.525Z,100.00
2018-12-01T03:04:36.897Z,100.00
2018-12-01T03:07:06.618Z,100.00
2018-12-01T03:09:36.015Z,100.00
2018-12-01T03:12:05.905Z,100.00
2018-12-01T03:14:36.147Z,100.00
2018-12-01T03:17:05.656Z,100.00
2018-12-01T03:19:35.621Z,100.00
2018-12-01T03:22:05.263Z,100.00
2018-12-01T03:24:35.908Z,100.00
2018-12-01T03:27:06.291Z,100.00
2018-12-01T03:29:35.591Z,100.00
2018-12-01T03:32:05.288Z,100.00
2018-12-01T03:34:34.747Z,100.00
2018-12-01T03:37:04.105Z,100.00
2018-12-01T03:39:34.312Z,100.00
2018-12-01T03:42:04.505Z,100.00
2018-12-01T03:44:34.007Z,100.00
2018-12-01T03:47:03.610Z,100.00
2018-12-01T03:49:33.080Z,100.00
2018-12-01T03:52:02.350Z,100.00
2018-12-01T03:54:31.666Z,100.00
2018-12-01T03:57:02.013Z,100.00
2018-12-01T03:59:31.956Z,100.00
2018-12-01T04:02:01.484Z,100.00
2018-12-01T04:04:30.987Z,100.00
2018-12-01T04:07:00.687Z,100.00
2018-12-01T04:09:30.847Z,100.00
2018-12-01T04:12:00.278Z,100.00
2018-12-01T04:14:29.712Z,100.00
2018-12-01T04:16:59.332Z,100.00
2018-12-01T04:19:28.832Z,100.00
2018-12-01T04:21:58.393Z,100.00
2018-12-01T04:24:28.026Z,100.00
2018-12-01T04:26:57.505Z,100.00
2018-12-01T04:29:27.631Z,100.00
2018-12-01T04:31:57.603Z,100.00
2018-12-01T04:34:27.714Z,100.00
2018-12-01T04:36:57.091Z,100.00
2018-12-01T04:39:26.422Z,100.00
2018-12-01T04:41:56.581Z,100.00
2018-12-01T04:44:25.876Z,100.00
2018-12-01T04:46:56.141Z,100.00
2018-12-01T04:49:25.866Z,100.00
2018-12-01T04:51:55.312Z,100.00
2018-12-01T04:54:24.651Z,100.00
2018-12-01T04:56:54.102Z,100.00
2018-12-01T04:59:23.741Z,100.00
2018-12-01T05:01:53.141Z,100.00
2018-12-01T05:04:23.432Z,100.00
2018-12-01T05:06:53.267Z,100.00
2018-12-01T05:09:22.836Z,100.00
2018-12-01T05:11:52.179Z,100.00
2018-12-01T05:14:22.596Z,100.00
2018-12-01T05:16:52.010Z,100.00
2018-12-01T05:19:21.622Z,100.00
2018-12-01T05:21:51.863Z,100.00
2018-12-01T05:24:21.216Z,100.00
2018-12-01T05:26:50.889Z,100.00
2018-12-01T05:34:08.838Z,100.00
2018-12-01T05:36:38.471Z,100.00
2018-12-01T05:39:09.548Z,100.00
2018-12-01T05:41:39.277Z,100.00
2018-12-01T05:44:08.811Z,100.00
2018-12-01T05:46:38.307Z,100.00
2018-12-01T05:49:07.786Z,100.00
2018-12-01T05:51:37.407Z,100.00
2018-12-01T05:54:06.875Z,100.00
2018-12-01T05:56:37.066Z,100.00
2018-12-01T05:59:06.547Z,100.00
2018-12-01T06:01:36.147Z,100.00
2018-12-01T06:04:07.032Z,100.00
2018-12-01T06:06:36.738Z,100.00
2018-12-01T06:09:08.943Z,100.00
2018-12-01T06:11:38.483Z,100.00
2018-12-01T06:14:08.906Z,100.00
2018-12-01T06:16:39.164Z,100.00
2018-12-01T06:19:09.467Z,100.00
2018-12-01T06:21:39.051Z,100.00
2018-12-01T06:24:08.543Z,100.00
2018-12-01T06:26:38.422Z,100.00
2018-12-01T06:29:07.787Z,100.00
2018-12-01T06:31:37.037Z,100.00
2018-12-01T06:34:07.053Z,99.94
2018-12-01T06:36:36.570Z,100.00
2018-12-01T06:39:08.196Z,100.00
2018-12-01T06:41:37.772Z,99.96
2018-12-01T06:44:07.182Z,98.63
2018-12-01T06:46:37.274Z,98.04
2018-12-01T06:49:07.308Z,98.79
2018-12-01T06:51:36.695Z,98.82
2018-12-01T06:54:06.291Z,99.12
2018-12-01T06:56:36.513Z,99.70
2018-12-01T06:59:06.142Z,99.23
2018-12-01T07:01:35.535Z,99.35
2018-12-01T07:04:05.504Z,99.72
2018-12-01T07:06:35.203Z,100.00
2018-12-01T07:09:07.969Z,100.00
2018-12-01T07:11:38.179Z,99.59
2018-12-01T07:14:08.191Z,99.21
2018-12-01T07:16:39.624Z,98.95
2018-12-01T07:19:23.663Z,99.32
2018-12-01T07:21:53.123Z,100.00
2018-12-01T07:24:22.769Z,99.95
2018-12-01T07:26:52.258Z,99.27
2018-12-01T07:29:21.786Z,99.00
2018-12-01T07:31:51.724Z,99.40
2018-12-01T07:34:22.522Z,99.55
2018-12-01T07:36:52.877Z,99.58
2018-12-01T07:39:22.187Z,100.00
2018-12-01T07:41:52.132Z,100.00
2018-12-01T07:44:22.930Z,100.00
2018-12-01T07:46:52.739Z,100.00
2018-12-01T07:49:22.747Z,100.00
2018-12-01T07:51:52.119Z,99.93
2018-12-01T07:54:22.602Z,100.00
2018-12-01T07:56:52.309Z,100.00
2018-12-01T07:59:22.485Z,100.00
2018-12-01T08:01:51.883Z,100.00
2018-12-01T08:04:22.305Z,100.00
2018-12-01T08:06:52.174Z,100.00
2018-12-01T08:09:21.541Z,97.86
2018-12-01T08:11:50.893Z,96.78
2018-12-01T08:14:20.844Z,97.47
2018-12-01T08:16:51.204Z,94.06
2018-12-01T08:19:21.708Z,93.32
2018-12-01T08:21:51.037Z,89.23
2018-12-01T08:24:20.829Z,89.58
2018-12-01T08:26:50.564Z,87.87
2018-12-01T08:29:20.049Z,88.40
2018-12-01T08:31:49.539Z,87.20
2018-12-01T08:34:19.155Z,85.45
2018-12-01T08:36:48.774Z,85.26
2018-12-01T08:39:18.585Z,84.69
2018-12-01T08:41:48.384Z,82.27
2018-12-01T08:44:18.186Z,77.64
2018-12-01T08:46:47.752Z,77.14
2018-12-01T08:49:17.757Z,75.12
2018-12-01T08:51:48.100Z,72.30
2018-12-01T08:54:18.023Z,71.95
2018-12-01T08:56:47.380Z,67.99
2018-12-01T08:59:16.905Z,63.98
2018-12-01T09:01:46.280Z,64.20
2018-12-01T09:04:18.111Z,66.25
2018-12-01T09:06:48.402Z,64.48
2018-12-01T09:09:17.990Z,61.63
2018-12-01T09:11:47.741Z,59.92
2018-12-01T09:14:18.465Z,55.02
2018-12-01T09:16:48.125Z,51.89
2018-12-01T09:19:18.035Z,48.92
2018-12-01T09:21:47.498Z,49.54
2018-12-01T09:24:16.949Z,50.99
2018-12-01T09:26:46.779Z,53.36
2018-12-01T09:29:16.440Z,54.03
2018-12-01T09:31:45.972Z,56.95
2018-12-01T09:34:15.583Z,56.61
2018-12-01T09:36:44.984Z,55.11
2018-12-01T09:39:14.406Z,55.36
2018-12-01T09:41:43.776Z,55.98
2018-12-01T09:44:13.314Z,55.44
2018-12-01T09:46:42.835Z,57.08
2018-12-01T09:49:13.739Z,57.90
2018-12-01T09:51:43.224Z,55.35
2018-12-01T09:54:13.476Z,57.13
2018-12-01T09:56:43.408Z,56.04
2018-12-01T09:59:13.675Z,58.92
2018-12-01T10:01:43.074Z,57.59
2018-12-01T10:04:13.310Z,53.69
2018-12-01T10:06:43.080Z,50.54
2018-12-01T10:09:13.155Z,49.18
2018-12-01T10:11:42.566Z,47.53
2018-12-01T10:14:12.064Z,44.90
2018-12-01T10:16:41.667Z,44.58
2018-12-01T10:19:11.596Z,44.04
2018-12-01T10:21:41.037Z,46.25
2018-12-01T10:24:10.827Z,44.82
2018-12-01T10:26:40.640Z,45.88
2018-12-01T10:29:11.119Z,47.12
2018-12-01T10:31:40.690Z,48.22
2018-12-01T10:34:10.334Z,48.94
2018-12-01T10:36:42.809Z,51.14
2018-12-01T10:39:12.521Z,50.75
2018-12-01T10:41:42.998Z,49.33
2018-12-01T10:44:12.840Z,47.99
2018-12-01T10:46:42.375Z,46.87
2018-12-01T10:49:12.484Z,45.60
2018-12-01T10:51:41.999Z,44.05
2018-12-01T10:54:12.249Z,40.63
2018-12-01T10:56:41.840Z,43.56
2018-12-01T10:59:11.608Z,42.31
2018-12-01T11:01:47.539Z,44.43
2018-12-01T11:04:22.286Z,45.29
2018-12-01T11:06:52.424Z,48.67
2018-12-01T11:09:21.941Z,47.06
2018-12-01T11:11:52.623Z,46.74
2018-12-01T11:14:22.172Z,44.16
2018-12-01T11:16:52.552Z,43.35
2018-12-01T11:19:22.216Z,41.63
2018-12-01T11:21:52.023Z,43.44
2018-12-01T11:24:21.445Z,40.59
2018-12-01T11:26:51.424Z,39.14
2018-12-01T11:29:20.978Z,38.78
2018-12-01T11:31:50.826Z,40.60
2018-12-01T11:34:21.031Z,38.76
2018-12-01T11:36:51.346Z,36.71
2018-12-01T11:39:20.880Z,36.56
2018-12-01T11:41:51.079Z,37.25
2018-12-01T11:44:21.333Z,34.79
2018-12-01T11:46:51.306Z,36.63
2018-12-01T11:49:21.494Z,38.31
2018-12-01T11:51:52.158Z,35.88
2018-12-01T11:54:22.269Z,37.95
2018-12-01T11:56:52.727Z,37.84
2018-12-01T11:59:23.736Z,36.92
2018-12-01T12:01:53.758Z,38.14
2018-12-01T12:04:23.723Z,38.21
2018-12-01T12:06:53.709Z,40.53
2018-12-01T12:09:23.941Z,41.73
2018-12-01T12:11:54.591Z,41.86
2018-12-01T12:14:24.422Z,46.56
2018-12-01T12:16:54.565Z,45.47
2018-12-01T12:19:24.894Z,49.27
2018-12-01T12:21:54.985Z,49.17
2018-12-01T12:24:25.545Z,49.17
2018-12-01T12:26:55.343Z,52.80
2018-12-01T12:29:25.270Z,49.41
2018-12-01T12:31:55.781Z,48.64
2018-12-01T12:34:25.665Z,49.18
2018-12-01T12:36:55.263Z,47.61
2018-12-01T12:39:25.181Z,50.87
2018-12-01T12:41:54.785Z,49.84
2018-12-01T12:44:24.597Z,50.69
2018-12-01T12:46:54.059Z,48.66
2018-12-01T12:49:23.520Z,46.85
2018-12-01T12:51:53.337Z,47.91
2018-12-01T12:54:22.859Z,47.18
2018-12-01T12:56:52.646Z,48.15
2018-12-01T12:59:22.000Z,50.33
2018-12-01T13:01:51.517Z,50.21
2018-12-01T13:04:21.263Z,51.08
2018-12-01T13:06:50.867Z,53.75
2018-12-01T13:09:20.559Z,54.73
2018-12-01T13:11:50.032Z,57.64
2018-12-01T13:14:20.412Z,54.87
2018-12-01T13:16:50.012Z,54.34
2018-12-01T13:19:19.587Z,52.81
2018-12-01T13:21:49.074Z,50.97
2018-12-01T13:24:18.749Z,51.55
2018-12-01T13:26:48.400Z,50.45
2018-12-01T13:29:18.004Z,50.84
2018-12-01T13:31:47.630Z,52.58
2018-12-01T13:34:17.930Z,53.12
2018-12-01T13:36:47.581Z,54.49
2018-12-01T13:39:17.185Z,55.09
2018-12-01T13:41:47.663Z,55.09
2018-12-01T13:44:17.881Z,54.74
2018-12-01T13:46:48.156Z,54.59
2018-12-01T13:49:18.676Z,55.62
2018-12-01T13:51:48.511Z,55.43
2018-12-01T13:54:18.441Z,55.82
2018-12-01T13:56:48.647Z,55.20
2018-12-01T13:59:18.781Z,57.90
2018-12-01T14:01:48.984Z,56.28
2018-12-01T14:04:18.555Z,58.62
2018-12-01T14:06:48.085Z,57.74
2018-12-01T14:09:17.849Z,58.98
2018-12-01T14:11:47.515Z,64.73
2018-12-01T14:14:17.049Z,60.92
2018-12-01T14:16:46.459Z,61.49
2018-12-01T14:19:16.515Z,60.79
2018-12-01T14:21:45.892Z,60.18
2018-12-01T14:24:15.840Z,60.39
2018-12-01T14:26:46.432Z,62.76
2018-12-01T14:29:16.585Z,62.75
2018-12-01T14:31:46.597Z,61.21
2018-12-01T14:34:16.761Z,61.31
2018-12-01T14:36:46.306Z,60.40
2018-12-01T14:39:15.952Z,61.43
2018-12-01T14:41:45.542Z,61.30
2018-12-01T14:44:15.191Z,62.83
2018-12-01T14:46:44.886Z,65.51
2018-12-01T14:49:14.961Z,66.56
2018-12-01T14:51:45.229Z,64.37
2018-12-01T14:54:15.399Z,67.17
2018-12-01T14:56:44.815Z,65.77
2018-12-01T14:59:14.805Z,66.56
2018-12-01T15:01:44.296Z,67.33
2018-12-01T15:04:13.896Z,69.17
2018-12-01T15:06:43.496Z,70.35
2018-12-01T15:09:13.952Z,71.04
2018-12-01T15:11:43.739Z,70.94
2018-12-01T15:14:14.162Z,70.46
2018-12-01T15:16:43.634Z,70.29
2018-12-01T15:19:13.475Z,70.68
2018-12-01T15:21:43.814Z,71.22
2018-12-01T15:24:13.960Z,72.55
2018-12-01T15:26:44.196Z,73.05
2018-12-01T15:29:14.331Z,73.63
2018-12-01T15:31:43.836Z,74.56
2018-12-01T15:34:14.221Z,75.11
2018-12-01T15:36:43.988Z,75.35
2018-12-01T15:39:14.029Z,75.52
2018-12-01T15:41:44.417Z,76.35
2018-12-01T15:44:14.506Z,76.95
2018-12-01T15:46:44.292Z,76.96
2018-12-01T15:49:14.000Z,77.58
2018-12-01T15:51:44.016Z,76.73
2018-12-01T15:54:14.214Z,76.95
2018-12-01T15:56:43.662Z,77.22
2018-12-01T15:59:13.436Z,77.31
2018-12-01T16:01:42.892Z,77.70
2018-12-01T16:04:12.679Z,78.13
2018-12-01T16:06:42.340Z,78.18
2018-12-01T16:09:11.965Z,78.88
2018-12-01T16:11:41.422Z,79.19
2018-12-01T16:14:11.373Z,79.25
2018-12-01T16:16:41.805Z,79.25
2018-12-01T16:19:11.395Z,79.21
2018-12-01T16:21:40.747Z,78.92
2018-12-01T16:24:11.059Z,79.49
2018-12-01T16:26:41.092Z,79.41
2018-12-01T16:29:11.335Z,79.39
2018-12-01T16:31:41.539Z,80.01
2018-12-01T16:34:11.615Z,80.67
2018-12-01T16:36:41.124Z,81.14
2018-12-01T16:39:11.223Z,81.16
2018-12-01T16:41:41.288Z,81.50
2018-12-01T16:44:10.762Z,81.70
2018-12-01T16:46:40.680Z,81.52
2018-12-01T16:49:10.107Z,82.29
2018-12-01T16:51:40.035Z,83.12
2018-12-01T16:54:09.653Z,83.07
2018-12-01T16:56:40.546Z,83.10
2018-12-01T16:59:10.684Z,83.72
2018-12-01T17:01:40.205Z,83.86
2018-12-01T17:04:10.095Z,83.13
2018-12-01T17:06:40.369Z,83.50
2018-12-01T17:09:10.327Z,83.58
2018-12-01T17:11:39.882Z,83.55
2018-12-01T17:14:09.898Z,84.51
2018-12-01T17:16:40.054Z,84.32
2018-12-01T17:19:09.446Z,84.57
2018-12-01T17:21:39.121Z,83.94
2018-12-01T17:24:09.187Z,83.85
2018-12-01T17:26:38.632Z,84.25
2018-12-01T17:29:08.159Z,84.40
2018-12-01T17:31:38.353Z,84.37
2018-12-01T17:34:08.714Z,84.74
2018-12-01T17:36:38.762Z,84.66
2018-12-01T17:39:09.866Z,84.25
2018-12-01T17:41:39.424Z,84.41
2018-12-01T17:44:10.606Z,84.67
2018-12-01T17:46:40.529Z,84.28
2018-12-01T17:49:10.013Z,85.21
2018-12-01T17:51:39.889Z,85.95
2018-12-01T17:54:12.024Z,85.79
2018-12-01T17:56:42.059Z,86.84
2018-12-01T17:59:11.708Z,87.13
2018-12-01T18:01:42.333Z,87.37
2018-12-01T18:04:11.966Z,87.91
2018-12-01T18:06:41.356Z,87.62
2018-12-01T18:09:10.971Z,88.03
2018-12-01T18:11:40.450Z,88.55
2018-12-01T18:14:12.692Z,88.37
2018-12-01T18:16:42.202Z,87.99
2018-12-01T18:19:12.447Z,87.86
2018-12-01T18:21:41.861Z,88.30
2018-12-01T18:24:11.408Z,87.71
2018-12-01T18:26:41.893Z,87.90
2018-12-01T18:29:12.000Z,88.35
2018-12-01T18:31:41.472Z,87.78
2018-12-01T18:34:13.188Z,88.12
2018-12-01T18:36:43.415Z,88.00
2018-12-01T18:39:16.891Z,88.03
2018-12-01T18:41:46.989Z,87.71
2018-12-01T18:44:16.729Z,88.44
2018-12-01T18:46:46.277Z,88.10
2018-12-01T18:49:15.766Z,88.51
2018-12-01T18:51:45.633Z,88.83
2018-12-01T18:54:15.426Z,88.92
2018-12-01T18:56:45.162Z,89.08
2018-12-01T18:59:15.242Z,89.37
2018-12-01T19:01:45.481Z,89.38
2018-12-01T19:04:14.843Z,89.95
2018-12-01T19:06:45.166Z,90.38
2018-12-01T19:09:15.011Z,90.40
2018-12-01T19:11:44.532Z,89.28
2018-12-01T19:14:14.461Z,89.98
2018-12-01T19:16:44.721Z,89.52
2018-12-01T19:19:14.202Z,89.98
2018-12-01T19:21:44.016Z,90.46
2018-12-01T19:24:13.497Z,90.59
2018-12-01T19:26:43.556Z,90.06
2018-12-01T19:29:13.357Z,90.15
2018-12-01T19:31:42.933Z,90.22
2018-12-01T19:34:12.422Z,90.31
2018-12-01T19:36:42.387Z,89.68
2018-12-01T19:39:11.855Z,89.82
2018-12-01T19:41:41.860Z,90.09
2018-12-01T19:44:12.117Z,90.45
2018-12-01T19:46:42.608Z,90.65
2018-12-01T19:49:13.285Z,90.42
2018-12-01T19:51:43.589Z,90.21
2018-12-01T19:54:14.035Z,90.11
2018-12-01T19:56:43.862Z,90.56
2018-12-01T19:59:13.439Z,90.59
2018-12-01T20:01:44.192Z,91.30
2018-12-01T20:04:13.760Z,91.01
2018-12-01T20:06:43.926Z,91.12
2018-12-01T20:09:13.832Z,91.22
2018-12-01T20:11:44.280Z,91.12
2018-12-01T20:14:15.911Z,90.77
2018-12-01T20:16:48.439Z,90.61
2018-12-01T20:19:18.343Z,91.11
2018-12-01T20:21:48.241Z,91.09
2018-12-01T20:24:18.037Z,90.87
2018-12-01T20:26:48.351Z,90.64
2018-12-01T20:29:17.876Z,90.26
2018-12-01T20:31:48.787Z,90.37
2018-12-01T20:34:18.820Z,90.17
2018-12-01T20:36:51.193Z,90.45
2018-12-01T20:39:26.193Z,90.95
2018-12-01T20:41:56.448Z,91.07
2018-12-01T20:44:26.565Z,91.28
2018-12-01T20:46:56.002Z,91.30
2018-12-01T20:49:25.896Z,91.68
2018-12-01T20:51:56.302Z,91.26
2018-12-01T20:54:43.969Z,91.21
2018-12-01T20:57:17.198Z,91.44
2018-12-01T20:59:47.256Z,91.89
2018-12-01T21:02:16.981Z,91.80
2018-12-01T21:04:46.656Z,92.25
2018-12-01T21:07:17.045Z,91.64
2018-12-01T21:09:47.014Z,91.43
2018-12-01T21:12:17.241Z,91.78
2018-12-01T21:14:47.167Z,91.89
2018-12-01T21:17:17.013Z,91.66
2018-12-01T21:19:46.797Z,91.74
2018-12-01T21:22:16.833Z,92.00
2018-12-01T21:24:48.301Z,91.88
2018-12-01T21:27:18.443Z,91.98
2018-12-01T21:29:48.686Z,92.25
2018-12-01T21:32:18.516Z,92.22
2018-12-01T21:34:48.074Z,92.45
2018-12-01T21:37:18.017Z,92.18
2018-12-01T21:39:47.469Z,92.10
2018-12-01T21:42:17.213Z,92.03
2018-12-01T21:44:47.610Z,91.79
2018-12-01T21:47:18.508Z,92.21
2018-12-01T21:49:49.376Z,92.49
2018-12-01T21:52:19.189Z,92.63
2018-12-01T21:54:48.858Z,93.43
2018-12-01T21:57:18.404Z,93.01
2018-12-01T21:59:47.961Z,93.37
2018-12-01T22:02:17.890Z,92.70
2018-12-01T22:04:47.995Z,92.72
2018-12-01T22:07:17.771Z,92.69
2018-12-01T22:09:48.063Z,92.35
2018-12-01T22:12:18.053Z,92.73
2018-12-01T22:14:47.648Z,92.72
2018-12-01T22:17:17.472Z,92.39
2018-12-01T22:19:47.989Z,92.51
2018-12-01T22:22:17.722Z,92.94
2018-12-01T22:24:47.273Z,92.79
2018-12-01T22:27:17.143Z,93.19
2018-12-01T22:29:46.776Z,93.29
2018-12-01T22:32:16.726Z,93.30
2018-12-01T22:34:46.157Z,93.34
2018-12-01T22:37:16.132Z,92.94
2018-12-01T22:39:45.651Z,93.11
2018-12-01T22:42:15.296Z,93.06
2018-12-01T22:44:44.761Z,93.06
2018-12-01T22:47:14.123Z,93.25
2018-12-01T22:49:44.284Z,92.88
2018-12-01T22:52:14.537Z,92.89
2018-12-01T22:54:44.503Z,92.46
2018-12-01T22:57:14.977Z,92.80
2018-12-01T22:59:44.977Z,92.88
2018-12-01T23:02:14.325Z,92.88
2018-12-01T23:04:43.757Z,93.28
2018-12-01T23:07:13.814Z,93.86
2018-12-01T23:09:43.945Z,93.51
2018-12-01T23:12:13.762Z,94.24
2018-12-01T23:14:43.388Z,93.43
2018-12-01T23:17:13.473Z,93.69
2018-12-01T23:19:43.564Z,93.93
2018-12-01T23:22:13.098Z,93.91
2018-12-01T23:24:42.757Z,93.52
2018-12-01T23:27:11.998Z,93.85
2018-12-01T23:29:41.228Z,93.76
2018-12-01T23:32:10.676Z,94.06
2018-12-01T23:34:40.885Z,93.50
2018-12-01T23:37:10.442Z,93.50
2018-12-01T23:39:40.298Z,93.43
2018-12-01T23:42:09.726Z,93.79
2018-12-01T23:44:39.388Z,94.05
2018-12-01T23:47:08.651Z,93.83
2018-12-01T23:49:38.221Z,94.21
2018-12-01T23:52:08.382Z,94.06
2018-12-01T23:54:37.787Z,94.12
2018-12-01T23:57:07.651Z,94.05
2018-12-01T23:59:37.129Z,94.42
